Time;durP1;ratioP1;P1;durP2;ratioP2;P2;SDS_P1;SDS_P2;PMS_P1;PMS_P2;Temp;Humidity;BMP_temperature;BMP_pressure;BME280_temperature;BME280_humidity;BME280_pressure;Samples;Min_cycle;Max_cycle;Signal;HPM_P1;HPM_P2
2024/01/22 00:02:32;;;;;;;21.70;9.80;;;;;;;-13.48;100.00;139022.55;106986;1266;25493;-58
2024/01/22 00:05:17;;;;;;;19.60;11.20;;;;;;;-13.51;100.00;139014.70;107014;1266;25347;-60
2024/01/22 00:08:03;;;;;;;17.20;8.40;;;;;;;-13.58;100.00;138998.00;106986;1273;25362;-56
2024/01/22 00:10:49;;;;;;;17.40;8.50;;;;;;;-13.64;100.00;138983.05;107018;1263;25445;-59
2024/01/22 00:13:35;;;;;;;16.70;8.50;;;;;;;-13.60;100.00;138991.66;106998;1272;25339;-60
2024/01/22 00:16:20;;;;;;;16.80;9.10;;;;;;;-13.49;100.00;139020.34;107009;1261;25363;-60
2024/01/22 00:19:09;;;;;;;20.40;9.60;;;;;;;-13.32;100.00;139058.88;106980;1269;25331;-56
2024/01/22 00:21:55;;;;;;;17.90;9.10;;;;;;;-13.19;100.00;139090.47;106950;1268;25335;-57
2024/01/22 00:24:41;;;;;;;17.10;8.30;;;;;;;-13.10;100.00;139112.34;106959;1271;25494;-57
2024/01/22 00:27:26;;;;;;;15.90;9.00;;;;;;;-13.10;100.00;139112.09;106959;1274;25458;-57
2024/01/22 00:30:12;;;;;;;16.30;8.70;;;;;;;-13.26;100.00;139074.30;106976;1270;25405;-60
2024/01/22 00:32:59;;;;;;;24.30;10.70;;;;;;;-13.33;100.00;139056.91;106896;1274;25462;-57
2024/01/22 00:35:45;;;;;;;18.00;9.50;;;;;;;-13.40;100.00;139041.19;106898;1273;25345;-56
2024/01/22 00:38:31;;;;;;;18.80;9.40;;;;;;;-13.35;100.00;139053.47;106925;1275;25345;-58
2024/01/22 00:41:17;;;;;;;20.20;10.30;;;;;;;-13.24;100.00;139078.95;106925;1267;25420;-57
2024/01/22 00:44:03;;;;;;;17.30;10.40;;;;;;;-13.18;100.00;139093.17;106916;1269;25484;-58
2024/01/22 00:46:49;;;;;;;19.00;8.80;;;;;;;-13.21;100.00;139085.08;106997;1274;25363;-58
2024/01/22 00:49:35;;;;;;;17.40;9.70;;;;;;;-13.19;100.00;139090.72;106963;1273;25372;-58
2024/01/22 00:52:20;;;;;;;15.90;8.70;;;;;;;-13.16;100.00;139098.09;106956;1275;25371;-57
2024/01/22 00:55:07;;;;;;;18.50;10.00;;;;;;;-13.13;100.00;139106.17;106948;1275;25529;-57
2024/01/22 00:57:53;;;;;;;18.10;9.70;;;;;;;-13.23;100.00;139080.91;106993;1270;25338;-57
2024/01/22 01:00:38;;;;;;;21.60;11.40;;;;;;;-13.35;100.00;139052.48;106959;1266;25564;-57
2024/01/22 01:03:24;;;;;;;19.80;10.30;;;;;;;-13.48;100.00;139022.30;106958;1266;25410;-57
2024/01/22 01:06:09;;;;;;;22.10;10.40;;;;;;;-13.60;100.00;138991.88;106929;1266;25417;-57
2024/01/22 01:08:55;;;;;;;21.90;11.80;;;;;;;-13.65;100.00;138980.34;106960;1275;25335;-57
2024/01/22 01:11:41;;;;;;;21.70;11.00;;;;;;;-13.67;100.00;138975.92;106916;1273;25424;-56
2024/01/22 01:14:27;;;;;;;20.30;9.30;;;;;;;-13.66;100.00;138979.13;106944;1266;25345;-57
2024/01/22 01:17:12;;;;;;;20.20;9.20;;;;;;;-13.68;100.00;138972.25;106994;1266;25379;-57
2024/01/22 01:19:58;;;;;;;17.00;9.10;;;;;;;-13.73;100.00;138960.50;106971;1270;25369;-57
2024/01/22 01:22:44;;;;;;;19.00;9.80;;;;;;;-13.72;100.00;138964.66;106952;1274;25344;-56
2024/01/22 01:25:29;;;;;;;19.20;10.20;;;;;;;-13.75;100.00;138957.28;106974;1266;25466;-57
2024/01/22 01:28:15;;;;;;;19.50;9.60;;;;;;;-13.79;100.00;138947.97;106979;1266;25350;-57
2024/01/22 01:31:01;;;;;;;16.40;8.90;;;;;;;-13.80;100.00;138946.25;106979;1275;25359;-58
2024/01/22 01:33:47;;;;;;;21.40;9.20;;;;;;;-13.76;100.00;138955.08;107056;1270;25411;-56
2024/01/22 01:36:33;;;;;;;20.40;9.60;;;;;;;-13.74;100.00;138957.78;106970;1270;25389;-58
2024/01/22 01:39:19;;;;;;;19.60;9.70;;;;;;;-13.61;100.00;138989.17;106984;1266;25366;-56
2024/01/22 01:42:04;;;;;;;18.30;8.70;;;;;;;-13.40;100.00;139041.69;106964;1270;25325;-58
2024/01/22 01:44:52;;;;;;;18.10;9.50;;;;;;;-13.23;100.00;139081.16;106938;1268;25733;-57
2024/01/22 01:47:39;;;;;;;17.60;8.40;;;;;;;-13.06;100.00;139121.66;106952;1269;25373;-56
2024/01/22 01:50:25;;;;;;;18.30;10.10;;;;;;;-12.96;100.00;139146.22;106927;1271;25338;-58
2024/01/22 01:53:14;;;;;;;17.60;9.30;;;;;;;-13.02;100.00;139131.22;106987;1275;25334;-58
2024/01/22 01:56:00;;;;;;;17.10;9.00;;;;;;;-13.19;100.00;139091.70;106985;1273;25448;-57
2024/01/22 01:58:47;;;;;;;20.50;8.80;;;;;;;-13.39;100.00;139044.14;106975;1273;25402;-57
2024/01/22 02:01:32;;;;;;;18.30;7.80;;;;;;;-13.59;100.00;138994.59;106993;1272;25407;-57
2024/01/22 02:04:18;;;;;;;17.50;7.60;;;;;;;-13.77;100.00;138953.36;107074;1266;25357;-58
2024/01/22 02:07:04;;;;;;;18.00;9.40;;;;;;;-13.81;100.00;138942.81;107134;1267;25411;-56
2024/01/22 02:09:52;;;;;;;16.40;8.40;;;;;;;-13.78;100.00;138951.16;107041;1266;22527;-58
2024/01/22 02:12:38;;;;;;;15.80;8.40;;;;;;;-13.76;100.00;138955.08;106941;1275;25571;-58
2024/01/22 02:15:24;;;;;;;16.30;8.10;;;;;;;-13.75;100.00;138957.28;106935;1273;25484;-57
2024/01/22 02:18:09;;;;;;;15.80;8.50;;;;;;;-13.64;100.00;138983.05;106945;1272;25421;-57
2024/01/22 02:20:55;;;;;;;15.30;7.70;;;;;;;-13.51;100.00;139013.47;106938;1266;25382;-57
2024/01/22 02:23:41;;;;;;;15.80;8.40;;;;;;;-13.39;100.00;139043.41;106954;1273;25395;-56
2024/01/22 02:26:26;;;;;;;17.70;9.80;;;;;;;-13.26;100.00;139074.78;106948;1275;25418;-56
2024/01/22 02:29:12;;;;;;;18.90;8.80;;;;;;;-13.11;100.00;139109.38;106977;1270;25401;-56
2024/01/22 02:31:58;;;;;;;15.60;8.70;;;;;;;-12.99;100.00;139138.34;106982;1274;25412;-57
2024/01/22 02:34:44;;;;;;;14.20;7.80;;;;;;;-12.92;100.00;139156.03;106997;1270;25363;-56
2024/01/22 02:37:31;;;;;;;18.90;9.00;;;;;;;-12.94;100.00;139152.09;106979;1275;25376;-58
2024/01/22 02:40:16;;;;;;;14.80;8.30;;;;;;;-13.05;100.00;139125.33;107016;1269;25538;-56
2024/01/22 02:43:02;;;;;;;16.80;10.20;;;;;;;-13.09;100.00;139115.53;106978;1272;25463;-57
2024/01/22 02:45:49;;;;;;;13.20;8.10;;;;;;;-13.03;100.00;139128.80;106888;1270;25382;-57
2024/01/22 02:48:34;;;;;;;14.60;8.80;;;;;;;-12.93;100.00;139154.06;106905;1270;25345;-58
2024/01/22 02:51:21;;;;;;;16.00;9.20;;;;;;;-12.85;100.00;139172.23;106953;1273;25325;-56
2024/01/22 02:54:06;;;;;;;16.10;8.40;;;;;;;-12.89;100.00;139162.16;106928;1269;25421;-57
2024/01/22 02:56:53;;;;;;;13.70;8.10;;;;;;;-13.05;100.00;139126.09;106967;1274;22523;-57
2024/01/22 02:59:40;;;;;;;15.90;8.60;;;;;;;-13.30;100.00;139065.22;106893;1271;25433;-55
2024/01/22 03:02:27;;;;;;;16.30;8.90;;;;;;;-13.52;100.00;139012.47;106911;1266;25331;-57
2024/01/22 03:05:13;;;;;;;14.00;7.90;;;;;;;-13.61;100.00;138990.41;106988;1270;25408;-56
2024/01/22 03:08:00;;;;;;;17.00;8.50;;;;;;;-13.58;100.00;138998.50;106950;1272;25344;-59
2024/01/22 03:10:46;;;;;;;16.60;9.50;;;;;;;-13.61;100.00;138990.66;107010;1266;25501;-58
2024/01/22 03:13:32;;;;;;;21.80;10.40;;;;;;;-13.78;100.00;138950.67;106988;1264;25370;-60
2024/01/22 03:16:18;;;;;;;20.20;10.60;;;;;;;-13.91;100.00;138918.77;107012;1275;25383;-59
2024/01/22 03:19:03;;;;;;;17.20;9.90;;;;;;;-14.02;100.00;138892.30;107011;1273;25494;-59
2024/01/22 03:21:49;;;;;;;18.00;9.40;;;;;;;-14.00;100.00;138896.45;107006;1270;25334;-57
2024/01/22 03:24:36;;;;;;;19.80;9.30;;;;;;;-13.86;100.00;138930.81;107065;1270;25465;-61
2024/01/22 03:27:22;;;;;;;18.40;10.30;;;;;;;-13.88;100.00;138926.38;107040;1272;25353;-56
2024/01/22 03:30:08;;;;;;;20.20;10.40;;;;;;;-13.87;100.00;138927.11;107005;1273;25605;-57
2024/01/22 03:32:54;;;;;;;21.70;9.90;;;;;;;-13.89;100.00;138922.95;106954;1275;25372;-56
2024/01/22 03:35:39;;;;;;;20.80;10.50;;;;;;;-13.95;100.00;138907.75;107001;1266;25427;-57
2024/01/22 03:38:25;;;;;;;26.10;11.90;;;;;;;-13.91;100.00;138918.53;106980;1267;25487;-58
2024/01/22 03:41:11;;;;;;;25.10;11.40;;;;;;;-13.81;100.00;138942.58;107008;1270;25405;-58
2024/01/22 03:43:57;;;;;;;18.90;10.20;;;;;;;-13.73;100.00;138959.75;107022;1267;25335;-57
2024/01/22 03:46:43;;;;;;;22.00;11.40;;;;;;;-13.83;100.00;138938.41;106961;1267;25348;-57
2024/01/22 03:49:29;;;;;;;22.30;11.90;;;;;;;-13.86;100.00;138931.30;106985;1273;25328;-58
2024/01/22 03:52:15;;;;;;;24.70;12.40;;;;;;;-13.94;100.00;138911.67;106948;1268;25339;-58
2024/01/22 03:55:02;;;;;;;22.80;12.50;;;;;;;-13.90;100.00;138920.73;107002;1267;25401;-57
2024/01/22 03:57:47;;;;;;;21.70;11.40;;;;;;;-13.78;100.00;138950.67;107010;1275;25424;-57
2024/01/22 04:00:33;;;;;;;21.00;10.80;;;;;;;-13.67;100.00;138976.42;107039;1274;25382;-57
2024/01/22 04:03:19;;;;;;;21.90;10.80;;;;;;;-13.63;100.00;138986.22;107019;1264;25385;-57
2024/01/22 04:06:06;;;;;;;26.90;12.80;;;;;;;-13.54;100.00;139007.33;107024;1275;25337;-57
2024/01/22 04:08:51;;;;;;;20.60;10.90;;;;;;;-13.41;100.00;139038.27;107074;1266;25457;-57
2024/01/22 04:11:37;;;;;;;21.60;11.30;;;;;;;-13.33;100.00;139057.88;107045;1267;25427;-57
2024/01/22 04:14:23;;;;;;;27.10;11.60;;;;;;;-13.27;100.00;139072.83;107048;1263;25501;-58
2024/01/22 04:17:09;;;;;;;21.30;11.70;;;;;;;-13.24;100.00;139079.92;106899;1264;25325;-57
2024/01/22 04:19:55;;;;;;;20.60;11.50;;;;;;;-13.18;100.00;139092.92;106998;1264;25365;-58
2024/01/22 04:22:41;;;;;;;28.20;12.70;;;;;;;-13.13;100.00;139104.72;107062;1264;25331;-57
2024/01/22 04:25:27;;;;;;;26.10;13.20;;;;;;;-13.08;100.00;139118.72;106994;1264;25574;-56
2024/01/22 04:28:14;;;;;;;23.90;13.30;;;;;;;-13.02;100.00;139132.22;107029;1264;25388;-56
2024/01/22 04:31:00;;;;;;;24.60;14.10;;;;;;;-12.97;100.00;139143.52;107037;1264;25412;-58
2024/01/22 04:33:45;;;;;;;28.00;14.50;;;;;;;-12.99;100.00;139138.84;107015;1273;25416;-56
2024/01/22 04:36:31;;;;;;;28.80;16.10;;;;;;;-13.03;100.00;139129.75;107030;1264;25368;-57
2024/01/22 04:39:19;;;;;;;25.90;13.80;;;;;;;-13.20;100.00;139088.77;107018;1273;25459;-56
2024/01/22 04:42:05;;;;;;;24.50;13.40;;;;;;;-13.25;100.00;139076.97;106986;1264;25402;-56
2024/01/22 04:44:51;;;;;;;20.80;9.90;;;;;;;-13.43;100.00;139034.31;107034;1267;25393;-56
2024/01/22 04:47:37;;;;;;;26.00;13.40;;;;;;;-13.65;100.00;138980.34;107015;1274;25325;-57
2024/01/22 04:50:22;;;;;;;26.60;13.40;;;;;;;-13.60;100.00;138993.59;106993;1264;25338;-56
2024/01/22 04:53:08;;;;;;;26.30;14.40;;;;;;;-13.51;100.00;139014.95;107018;1269;25484;-57
2024/01/22 04:55:54;;;;;;;22.40;11.50;;;;;;;-13.51;100.00;139013.72;107010;1264;25383;-57
2024/01/22 04:58:39;;;;;;;22.30;13.40;;;;;;;-13.58;100.00;138997.03;106983;1264;25526;-57
2024/01/22 05:01:25;;;;;;;25.40;11.30;;;;;;;-13.66;100.00;138977.66;107019;1264;25423;-57
2024/01/22 05:04:11;;;;;;;30.20;13.80;;;;;;;-13.56;100.00;139001.94;106962;1260;25430;-57
2024/01/22 05:06:57;;;;;;;26.50;13.80;;;;;;;-13.40;100.00;139041.94;106980;1264;25391;-56
2024/01/22 05:09:42;;;;;;;22.50;12.30;;;;;;;-13.32;100.00;139059.84;107010;1266;25363;-58
2024/01/22 05:12:28;;;;;;;26.30;14.40;;;;;;;-13.24;100.00;139077.50;106991;1264;25334;-57
2024/01/22 05:15:15;;;;;;;26.40;14.70;;;;;;;-13.17;100.00;139094.88;107011;1264;25533;-58
2024/01/22 05:18:01;;;;;;;29.40;15.30;;;;;;;-13.10;100.00;139113.55;107006;1264;25354;-57
2024/01/22 05:20:47;;;;;;;35.20;16.10;;;;;;;-13.08;100.00;139116.75;106966;1269;25375;-58
2024/01/22 05:23:33;;;;;;;28.80;16.50;;;;;;;-13.10;100.00;139112.83;107040;1264;24342;-58
2024/01/22 05:26:18;;;;;;;30.30;16.30;;;;;;;-13.05;100.00;139123.38;107033;1264;25408;-58
2024/01/22 05:29:04;;;;;;;28.40;14.80;;;;;;;-13.00;100.00;139137.61;107049;1264;25530;-59
2024/01/22 05:31:50;;;;;;;29.60;16.00;;;;;;;-13.03;100.00;139129.78;107030;1264;25353;-58
2024/01/22 05:34:36;;;;;;;32.80;16.30;;;;;;;-13.09;100.00;139115.53;106957;1266;112691;-57
2024/01/22 05:37:21;;;;;;;32.20;18.00;;;;;;;-13.06;100.00;139123.14;107009;1274;23952;-57
2024/01/22 05:40:10;;;;;;;28.10;15.80;;;;;;;-12.97;100.00;139144.98;106977;1265;25393;-58
2024/01/22 05:42:56;;;;;;;28.30;15.00;;;;;;;-13.01;100.00;139134.44;107034;1270;25395;-58
2024/01/22 05:45:41;;;;;;;28.40;14.10;;;;;;;-13.10;100.00;139112.09;107029;1260;22532;-59
2024/01/22 05:48:27;;;;;;;27.50;14.70;;;;;;;-13.18;100.00;139092.69;107021;1260;25387;-57
2024/01/22 05:51:13;;;;;;;28.60;15.90;;;;;;;-13.19;100.00;139091.72;107055;1264;24196;-56
2024/01/22 05:53:59;;;;;;;25.00;13.40;;;;;;;-13.19;100.00;139091.70;106973;1264;25334;-57
2024/01/22 05:56:46;;;;;;;31.00;16.70;;;;;;;-13.25;100.00;139076.97;107004;1273;25353;-57
2024/01/22 05:59:32;;;;;;;30.10;15.50;;;;;;;-13.19;100.00;139090.00;107014;1264;25350;-58
2024/01/22 06:02:17;;;;;;;31.30;17.50;;;;;;;-13.20;100.00;139089.73;107076;1267;25335;-57
2024/01/22 06:05:04;;;;;;;29.40;15.30;;;;;;;-13.29;100.00;139066.72;107060;1263;25488;-57
2024/01/22 06:07:50;;;;;;;28.90;15.20;;;;;;;-13.33;100.00;139058.38;107063;1264;25412;-58
2024/01/22 06:10:36;;;;;;;32.90;16.90;;;;;;;-13.37;100.00;139050.03;107069;1263;25440;-58
2024/01/22 06:13:21;;;;;;;35.10;18.50;;;;;;;-13.43;100.00;139033.84;107023;1264;25369;-57
2024/01/22 06:16:12;;;;;;;33.20;18.70;;;;;;;-13.43;100.00;139034.09;107026;1261;25452;-57
2024/01/22 06:18:57;;;;;;;39.50;16.20;;;;;;;-13.35;100.00;139053.72;107003;1264;25508;-57
2024/01/22 06:21:44;;;;;;;29.70;17.00;;;;;;;-13.30;100.00;139065.00;107000;1264;25407;-57
2024/01/22 06:24:30;;;;;;;32.40;17.00;;;;;;;-13.34;100.00;139054.22;106999;1264;25405;-57
2024/01/22 06:27:16;;;;;;;30.50;13.40;;;;;;;-13.34;100.00;139055.67;106959;1264;25417;-56
2024/01/22 06:30:03;;;;;;;25.60;15.00;;;;;;;-13.41;100.00;139038.75;107015;1263;25362;-57
2024/01/22 06:32:49;;;;;;;32.10;16.30;;;;;;;-13.41;100.00;139038.50;106986;1263;25353;-59
2024/01/22 06:35:36;;;;;;;35.30;19.20;;;;;;;-13.30;100.00;139065.25;106997;1263;25423;-57
2024/01/22 06:38:22;;;;;;;32.50;18.20;;;;;;;-13.15;100.00;139101.28;107008;1264;25381;-57
2024/01/22 06:41:11;;;;;;;31.70;17.30;;;;;;;-13.07;100.00;139118.97;106989;1264;25383;-57
2024/01/22 06:43:57;;;;;;;30.60;18.00;;;;;;;-13.02;100.00;139131.97;106969;1251;25832;-57
2024/01/22 06:46:43;;;;;;;37.00;18.40;;;;;;;-12.96;100.00;139146.45;107018;1263;25404;-58
2024/01/22 06:49:28;;;;;;;32.60;17.80;;;;;;;-12.84;100.00;139175.91;107019;1264;25359;-57
2024/01/22 06:52:14;;;;;;;32.80;18.80;;;;;;;-12.83;100.00;139177.88;107001;1263;25392;-59
2024/01/22 06:55:01;;;;;;;34.90;18.30;;;;;;;-12.80;100.00;139184.03;107034;1260;25446;-59
2024/01/22 06:57:47;;;;;;;34.60;19.80;;;;;;;-12.77;100.00;139190.66;107003;1264;25500;-58
2024/01/22 07:00:33;;;;;;;34.60;18.00;;;;;;;-12.77;100.00;139191.63;107002;1263;25408;-59
2024/01/22 07:03:20;;;;;;;36.80;19.90;;;;;;;-12.77;100.00;139193.09;107011;1265;25363;-59
2024/01/22 07:06:06;;;;;;;30.20;18.80;;;;;;;-12.71;100.00;139205.88;107003;1258;25510;-58
2024/01/22 07:08:52;;;;;;;33.90;18.40;;;;;;;-12.61;100.00;139230.42;106992;1268;25415;-57
2024/01/22 07:11:38;;;;;;;40.60;22.20;;;;;;;-12.52;100.00;139253.27;107026;1261;25347;-58
2024/01/22 07:14:24;;;;;;;37.80;22.20;;;;;;;-12.39;100.00;139282.75;107145;1266;25400;-58
2024/01/22 07:17:10;;;;;;;42.00;23.00;;;;;;;-12.37;100.00;139287.66;107003;1264;25340;-57
2024/01/22 07:19:56;;;;;;;44.70;24.30;;;;;;;-12.43;100.00;139272.17;107007;1266;25456;-57
2024/01/22 07:22:43;;;;;;;48.90;26.50;;;;;;;-12.40;100.00;139280.30;107012;1267;25378;-56
2024/01/22 07:25:36;;;;;;;50.20;25.60;;;;;;;-12.32;100.00;139299.95;107052;1263;25442;-56
2024/01/22 07:28:22;;;;;;;33.40;19.40;;;;;;;-12.31;100.00;139302.39;107017;1267;25328;-56
2024/01/22 07:31:08;;;;;;;35.00;18.60;;;;;;;-12.37;100.00;139287.16;107004;1266;25522;-58
2024/01/22 07:33:54;;;;;;;37.80;21.20;;;;;;;-12.40;100.00;139280.55;108445;1259;22610;-58
2024/01/22 07:36:40;;;;;;;39.70;22.20;;;;;;;-12.30;100.00;139303.88;107621;1260;26536;-56
2024/01/22 07:39:25;;;;;;;39.40;23.30;;;;;;;-12.15;100.00;139339.50;107609;1256;22546;-56
2024/01/22 07:42:11;;;;;;;40.30;23.50;;;;;;;-12.07;100.00;139359.66;107454;1265;25359;-57
2024/01/22 07:44:57;;;;;;;40.80;24.10;;;;;;;-12.05;100.00;139364.81;107204;1261;22546;-59
2024/01/22 07:47:43;;;;;;;39.40;23.00;;;;;;;-12.00;100.00;139377.09;107385;1269;25421;-59
2024/01/22 07:50:30;;;;;;;40.90;22.20;;;;;;;-12.04;100.00;139368.02;107113;1267;25334;-58
2024/01/22 07:53:15;;;;;;;41.50;22.50;;;;;;;-12.06;100.00;139363.83;107594;1267;25372;-57
2024/01/22 07:56:02;;;;;;;31.70;18.60;;;;;;;-12.06;100.00;139361.63;107019;1264;25344;-60
2024/01/22 07:58:48;;;;;;;32.30;18.10;;;;;;;-12.09;100.00;139355.47;107467;1267;22757;-57
2024/01/22 08:01:34;;;;;;;32.10;18.20;;;;;;;-12.05;100.00;139365.55;107678;1266;25411;-59
2024/01/22 08:04:19;;;;;;;29.40;16.80;;;;;;;-12.02;100.00;139372.92;107569;1253;25383;-56
2024/01/22 08:07:06;;;;;;;30.30;16.20;;;;;;;-12.04;100.00;139367.77;107082;1260;25427;-57
2024/01/22 08:09:52;;;;;;;27.00;16.10;;;;;;;-12.12;100.00;139347.34;107244;1264;23295;-58
2024/01/22 08:12:38;;;;;;;28.60;17.00;;;;;;;-12.22;100.00;139324.28;107445;1260;23599;-58
2024/01/22 08:15:24;;;;;;;25.40;13.30;;;;;;;-12.42;100.00;139275.63;106957;1264;25529;-58
2024/01/22 08:18:10;;;;;;;27.60;15.30;;;;;;;-12.59;100.00;139233.88;106966;1263;25477;-58
2024/01/22 08:20:56;;;;;;;27.00;15.20;;;;;;;-12.50;100.00;139256.47;107338;1266;25412;-57
2024/01/22 08:23:42;;;;;;;30.10;17.20;;;;;;;-12.46;100.00;139266.28;107378;1267;25414;-59
2024/01/22 08:26:29;;;;;;;29.60;16.40;;;;;;;-12.52;100.00;139252.28;107302;1263;22755;-58
2024/01/22 08:29:15;;;;;;;26.10;15.10;;;;;;;-12.49;100.00;139260.41;107187;1263;25365;-58
2024/01/22 08:32:01;;;;;;;29.50;16.50;;;;;;;-12.39;100.00;139283.47;107392;1256;22946;-56
2024/01/22 08:34:47;;;;;;;31.40;16.60;;;;;;;-12.37;100.00;139288.41;107391;1259;25353;-56
2024/01/22 08:37:34;;;;;;;31.50;16.80;;;;;;;-12.27;100.00;139311.72;106865;1274;25369;-57
2024/01/22 08:40:23;;;;;;;30.20;17.20;;;;;;;-12.13;100.00;139345.16;106877;1256;25400;-58
2024/01/22 08:43:10;;;;;;;27.30;15.40;;;;;;;-12.03;100.00;139370.22;106886;1258;25462;-57
2024/01/22 08:45:56;;;;;;;32.50;16.90;;;;;;;-12.01;100.00;139373.66;106827;1267;25478;-58
2024/01/22 08:48:42;;;;;;;35.10;17.40;;;;;;;-11.97;100.00;139384.22;106837;1266;25430;-57
2024/01/22 08:51:28;;;;;;;27.70;14.50;;;;;;;-12.08;100.00;139358.17;107020;1262;25293;-56
2024/01/22 08:54:14;;;;;;;24.10;12.90;;;;;;;-12.25;100.00;139316.16;106834;1275;26089;-66
2024/01/22 08:57:00;;;;;;;26.00;14.80;;;;;;;-12.23;100.00;139321.08;107092;1266;25501;-57
2024/01/22 08:59:46;;;;;;;27.20;16.60;;;;;;;-12.23;100.00;139321.58;106891;1266;25381;-56
2024/01/22 09:02:32;;;;;;;26.10;14.90;;;;;;;-12.21;100.00;139326.00;106916;1266;25530;-60
2024/01/22 09:05:18;;;;;;;29.30;16.90;;;;;;;-12.18;100.00;139332.36;106874;1254;23721;-57
2024/01/22 09:08:05;;;;;;;32.70;16.80;;;;;;;-12.14;100.00;139343.42;106854;1261;24212;-57
2024/01/22 09:10:51;;;;;;;29.90;16.50;;;;;;;-11.99;100.00;139379.78;106801;1266;25608;-58
2024/01/22 09:13:38;;;;;;;40.40;21.80;;;;;;;-11.84;100.00;139415.16;106807;1266;25375;-58
2024/01/22 09:16:24;;;;;;;41.90;23.10;;;;;;;-11.70;100.00;139450.28;106828;1266;25363;-57
2024/01/22 09:19:10;;;;;;;30.40;17.90;;;;;;;-11.51;100.00;139494.30;107073;1253;25430;-57
2024/01/22 09:21:57;;;;;;;31.60;17.60;;;;;;;-11.38;100.00;139526.25;107781;1256;23190;-57
2024/01/22 09:24:42;;;;;;;31.10;16.20;;;;;;;-11.38;100.00;139525.05;107636;1253;25341;-58
2024/01/22 09:27:28;;;;;;;33.00;18.50;;;;;;;-11.42;100.00;139515.67;107634;1263;25465;-58
2024/01/22 09:30:15;;;;;;;33.20;20.30;;;;;;;-11.47;100.00;139503.16;107818;1260;22522;-57
2024/01/22 09:33:05;;;;;;;36.60;20.00;;;;;;;-11.46;100.00;139505.34;107710;1257;22597;-58
2024/01/22 09:35:51;;;;;;;38.90;21.30;;;;;;;-11.43;100.00;139512.48;107285;1257;22965;-59
2024/01/22 09:38:40;;;;;;;37.20;22.10;;;;;;;-11.42;100.00;139515.67;107515;1259;25347;-57
2024/01/22 09:41:27;;;;;;;38.30;21.20;;;;;;;-11.37;100.00;139527.48;107161;1257;25402;-56
2024/01/22 09:44:14;;;;;;;36.60;19.90;;;;;;;-11.34;100.00;139535.88;107389;1260;24353;-59
2024/01/22 09:47:02;;;;;;;36.20;19.70;;;;;;;-11.34;100.00;139534.16;107509;1263;27471;-59
2024/01/22 09:49:49;;;;;;;38.70;20.40;;;;;;;-11.35;100.00;139533.66;107777;1260;25356;-57
2024/01/22 09:52:42;;;;;;;34.60;18.40;;;;;;;-11.56;100.00;139482.97;107509;1257;25486;-56
2024/01/22 09:55:29;;;;;;;32.40;16.20;;;;;;;-11.82;100.00;139418.84;107526;1257;23265;-56
2024/01/22 09:58:20;;;;;;;27.90;15.90;;;;;;;-11.91;100.00;139397.50;107442;1258;25373;-56
2024/01/22 10:01:10;;;;;;;33.60;17.70;;;;;;;-11.87;100.00;139409.03;107739;1256;25372;-56
2024/01/22 10:03:57;;;;;;;36.40;18.70;;;;;;;-11.84;100.00;139414.16;107518;1254;25477;-56
2024/01/22 10:06:45;;;;;;;34.00;18.10;;;;;;;-11.77;100.00;139432.11;107385;1257;25392;-59
2024/01/22 10:09:31;;;;;;;34.20;18.10;;;;;;;-11.81;100.00;139423.25;107650;1260;25360;-58
2024/01/22 10:12:16;;;;;;;27.60;15.80;;;;;;;-11.69;100.00;139451.78;107793;1256;25421;-58
2024/01/22 10:15:13;;;;;;;30.00;16.10;;;;;;;-11.55;100.00;139485.20;107905;1256;23146;-60
2024/01/22 10:18:12;;;;;;;32.20;17.00;;;;;;;-11.51;100.00;139493.80;107618;1256;25494;-57
2024/01/22 10:20:58;;;;;;;29.30;16.50;;;;;;;-11.48;100.00;139502.41;107205;1254;25484;-59
2024/01/22 10:23:55;;;;;;;28.20;15.90;;;;;;;-11.53;100.00;139488.14;107610;1257;25344;-58
2024/01/22 10:26:41;;;;;;;26.10;14.70;;;;;;;-11.52;100.00;139492.58;107080;1256;22520;-56
2024/01/22 10:29:29;;;;;;;30.40;17.30;;;;;;;-11.54;100.00;139486.42;107107;1257;25430;-57
2024/01/22 10:32:21;;;;;;;26.60;14.80;;;;;;;-11.44;100.00;139512.25;107461;1254;25373;-56
2024/01/22 10:35:25;;;;;;;26.00;14.80;;;;;;;-11.43;100.00;139514.70;106849;1257;25421;-58
2024/01/22 10:38:19;;;;;;;24.30;12.00;;;;;;;-11.65;100.00;139462.34;107005;1257;25328;-58
2024/01/22 10:41:16;;;;;;;27.00;12.40;;;;;;;-11.86;100.00;139409.25;107164;1256;25429;-58
2024/01/22 10:44:02;;;;;;;25.30;13.70;;;;;;;-12.00;100.00;139377.83;107418;1256;22520;-58
2024/01/22 10:46:49;;;;;;;24.50;13.20;;;;;;;-12.16;100.00;139338.27;107094;1257;25347;-59
2024/01/22 10:49:35;;;;;;;24.40;14.20;;;;;;;-12.16;100.00;139338.28;107408;1259;25372;-58
2024/01/22 10:52:24;;;;;;;21.70;14.00;;;;;;;-12.15;100.00;139341.97;107334;1263;22639;-57
2024/01/22 10:55:09;;;;;;;21.90;12.50;;;;;;;-12.05;100.00;139365.05;107344;1257;22638;-57
2024/01/22 10:57:57;;;;;;;25.80;14.00;;;;;;;-11.99;100.00;139379.30;107205;1260;25355;-59
2024/01/22 11:00:45;;;;;;;22.20;11.60;;;;;;;-11.97;100.00;139384.97;107251;1259;25400;-59
2024/01/22 11:03:38;;;;;;;25.70;14.90;;;;;;;-11.89;100.00;139402.17;106953;1259;25344;-57
2024/01/22 11:06:27;;;;;;;25.20;14.60;;;;;;;-11.73;100.00;139441.45;107322;1256;25459;-58
2024/01/22 11:09:15;;;;;;;27.40;15.10;;;;;;;-11.59;100.00;139475.11;107206;1256;22539;-59
2024/01/22 11:12:09;;;;;;;27.20;15.80;;;;;;;-11.42;100.00;139515.69;107531;1260;25406;-60
2024/01/22 11:14:55;;;;;;;31.90;17.00;;;;;;;-11.20;100.00;139570.30;107403;1257;25411;-60
2024/01/22 11:17:42;;;;;;;31.50;18.30;;;;;;;-11.02;100.00;139610.59;107394;1259;25344;-58
2024/01/22 11:20:28;;;;;;;28.80;17.50;;;;;;;-10.96;100.00;139628.09;107417;1259;26778;-59
2024/01/22 11:23:16;;;;;;;35.80;12.90;;;;;;;-11.02;100.00;139611.84;107493;1260;22543;-57
2024/01/22 11:26:09;;;;;;;24.70;13.20;;;;;;;-11.37;100.00;139527.02;107698;1257;25361;-57
2024/01/22 11:29:05;;;;;;;27.90;14.00;;;;;;;-11.55;100.00;139485.95;107191;1253;25567;-58
2024/01/22 11:31:51;;;;;;;29.10;16.20;;;;;;;-11.54;100.00;139487.91;107657;1260;25693;-57
2024/01/22 11:34:43;;;;;;;27.00;16.20;;;;;;;-11.32;100.00;139539.55;107428;1259;25481;-57
2024/01/22 11:37:36;;;;;;;23.50;14.40;;;;;;;-11.14;100.00;139582.58;107704;1264;25458;-57
2024/01/22 11:40:52;;;;;;;30.20;16.70;;;;;;;-11.02;100.00;139611.34;107466;1253;23780;-57
2024/01/22 11:43:38;;;;;;;26.60;15.30;;;;;;;-11.09;100.00;139596.09;107521;1260;25337;-59
2024/01/22 11:46:25;;;;;;;28.10;16.00;;;;;;;-11.43;100.00;139512.75;107893;1257;25347;-57
2024/01/22 11:49:12;;;;;;;27.50;16.10;;;;;;;-11.63;100.00;139465.28;107443;1253;25385;-57
2024/01/22 11:52:09;;;;;;;29.10;15.50;;;;;;;-11.54;100.00;139486.42;107452;1261;25386;-56
2024/01/22 11:55:01;;;;;;;30.50;17.90;;;;;;;-11.51;100.00;139493.80;107405;1257;23395;-58
2024/01/22 11:57:46;;;;;;;26.30;14.80;;;;;;;-11.42;100.00;139517.41;106859;1258;25442;-56
2024/01/22 12:00:33;;;;;;;32.70;18.00;;;;;;;-11.37;100.00;139527.98;107169;1259;25430;-58
2024/01/22 12:03:30;;;;;;;31.00;18.20;;;;;;;-11.37;100.00;139529.22;107506;1257;23298;-58
2024/01/22 12:06:16;;;;;;;31.00;18.10;;;;;;;-11.28;100.00;139548.89;107707;1257;25484;-57
2024/01/22 12:09:02;;;;;;;33.50;18.40;;;;;;;-11.38;100.00;139526.03;107457;1259;25421;-58
2024/01/22 12:11:53;;;;;;;35.60;20.70;;;;;;;-11.36;100.00;139529.70;107300;1257;25347;-59
2024/01/22 12:14:39;;;;;;;29.40;17.50;;;;;;;-11.24;100.00;139560.22;107713;1258;25347;-59
2024/01/22 12:17:25;;;;;;;37.10;20.40;;;;;;;-11.21;100.00;139565.86;107514;1254;25356;-58